DW1980 Armonk NY US current weather conditions

sailwx.info

Wind from 289 at 0 knots gusting 2

Air temperature 10.6° C
Dewpoint -2.8° C

Last reported at 2019-Nov-15 20:08 UTC.
Time now 2019-Nov-15 20:38 UTC

Location: N 41°08' W 073°42'.
View on Google Maps.

See reports from other nearby stations

  
Tides and Currents Weather Stations Pressure Air Temp Water Temp Dewpoint Dewpoint Depression Visibility Wind Speed Wind Dir Waves Ship Positions
date/time (UTC)wind fromknots sea level pressurealtimeterstation pressurevisibilityair tempwater tempwave heightnotes
2019-Nov-15 20:08 289 0 gusting 2 10.6
2019-Nov-15 20:03 290 10.6
2019-Nov-15 19:58 301 2 gusting 7 10.6
2019-Nov-15 19:53 277 2 gusting 6 10.6
2019-Nov-15 19:48 229 10.6
2019-Nov-15 19:43 213 0 gusting 6 10.6
2019-Nov-15 19:38 222 2 gusting 5 10.6
2019-Nov-15 19:28 269 0 gusting 5 10.6
2019-Nov-15 19:23 242 1 gusting 5 10.6
2019-Nov-15 19:18 305 0 gusting 4 11.1
2019-Nov-15 19:13 271 1 gusting 4 11.1
2019-Nov-15 19:08 211 1 gusting 4 11.1
2019-Nov-15 19:03 221 1 gusting 6 11.1
2019-Nov-15 18:58 282 2 gusting 6 11.1
2019-Nov-15 18:53 286 1 gusting 6 11.1
2019-Nov-15 18:48 280 1 gusting 6 11.1
2019-Nov-15 18:43 278 0 gusting 4 11.1
2019-Nov-15 18:38 227 11.1
2019-Nov-15 18:33 299 1 gusting 6 11.1
2019-Nov-15 18:28 213 10.6
2019-Nov-15 18:23 280 10.6
2019-Nov-15 18:18 279 10.6
2019-Nov-15 18:13 221 0 gusting 4 10.6
2019-Nov-15 18:08 240 0 gusting 4 10.6
2019-Nov-15 18:03 222 10.0
2019-Nov-15 17:58 296 1 gusting 6 10.0
2019-Nov-15 17:53 219 2 gusting 6 10.0
2019-Nov-15 17:48 196 0 gusting 7 10.0
2019-Nov-15 17:43 264 1 gusting 7 10.0
2019-Nov-15 17:38 320 1 gusting 7 10.0
2019-Nov-15 17:33 298 1 gusting 4 10.0
2019-Nov-15 17:28 223 284 gusting 284 10.0
2019-Nov-15 17:23 286 2 gusting 6 10.0
2019-Nov-15 17:18 279 0 gusting 5 9.4
2019-Nov-15 17:13 286 2 gusting 6 10.0
2019-Nov-15 17:08 254 0 gusting 9 10.0
2019-Nov-15 17:03 284 2 gusting 9 9.4
2019-Nov-15 16:58 266 9.4
2019-Nov-15 16:53 280 2 gusting 6 9.4
2019-Nov-15 16:48 292 9.4
2019-Nov-15 16:43 284 2 gusting 8 9.4
2019-Nov-15 16:38 300 2 gusting 7 9.4
2019-Nov-15 16:33 283 0 gusting 6 8.9
2019-Nov-15 16:28 265 1 gusting 7 8.9
2019-Nov-15 16:23 275 0 gusting 7 8.3
2019-Nov-15 16:18 235 1 gusting 7 8.3
2019-Nov-15 16:13 300 4 gusting 7 7.8
2019-Nov-15 16:08 245 1 gusting 6 7.2
2019-Nov-15 16:03 275 7.2
2019-Nov-15 15:58 284 3 gusting 8 7.2
2019-Nov-15 15:53 282 2 gusting 6 7.2
2019-Nov-15 15:48 292 7.2
2019-Nov-15 15:43 283 6.7
2019-Nov-15 15:38 204 1 gusting 5 6.7
2019-Nov-15 15:33 243 1 gusting 5 6.7
2019-Nov-15 15:28 238 1 gusting 3 6.7
2019-Nov-15 15:23 252 6.1
2019-Nov-15 15:18 251 0 gusting 5 6.1
2019-Nov-15 15:13 209 0 gusting 5 6.1
2019-Nov-15 15:08 221 284 gusting 284 6.1
2019-Nov-15 15:03 224 1 gusting 6 5.6
2019-Nov-15 14:58 216 0 gusting 6 5.6
2019-Nov-15 14:53 254 1 gusting 7 5.6
2019-Nov-15 14:48 224 1 gusting 7 5.6
2019-Nov-15 14:30 275 5.0
2019-Nov-15 14:23 265 0 gusting 6 5.0
2019-Nov-15 14:18 281 1 gusting 6 5.0
2019-Nov-15 14:08 252 1 gusting 6 3.9
2019-Nov-15 14:03 244 0 gusting 6 3.3
2019-Nov-15 13:58 100 2.2
2019-Nov-15 13:53 240 1.7
2019-Nov-15 13:43 263 -0.6
2019-Nov-15 13:38 264 -1.1
2019-Nov-15 13:33 264 -1.7
2019-Nov-15 13:28 264 -2.2
2019-Nov-15 13:23 264 -2.2
2019-Nov-15 13:18 264 -2.2
2019-Nov-15 13:13 264 -2.8
2019-Nov-15 13:08 264 -2.8
2019-Nov-15 13:03 264 -3.3
2019-Nov-15 12:58 264 -3.3
2019-Nov-15 12:53 264 -3.3
2019-Nov-15 12:48 264 -3.9
2019-Nov-15 12:43 264 -3.9
2019-Nov-15 12:38 264 -3.9
2019-Nov-15 12:33 264 -3.9
2019-Nov-15 12:28 264 -4.4
2019-Nov-15 12:23 264 -4.4
2019-Nov-15 12:18 264 -4.4
2019-Nov-15 12:13 264 -4.4
2019-Nov-15 12:08 264 -4.4
2019-Nov-15 12:03 264 -4.4
2019-Nov-15 11:58 264 -4.4
2019-Nov-15 11:48 264 -4.4
2019-Nov-15 11:43 264 -4.4
2019-Nov-15 11:38 264 -4.4
2019-Nov-15 11:33 264 -4.4
2019-Nov-15 11:28 264 -4.4
2019-Nov-15 11:23 264 -4.4
2019-Nov-15 11:18 264 -3.9
2019-Nov-15 11:13 264 -3.9
2019-Nov-15 11:08 264 -3.9
2019-Nov-15 11:03 264 -3.9
2019-Nov-15 10:58 264 -3.9
2019-Nov-15 10:53 264 -3.9
2019-Nov-15 10:48 264 -3.9
2019-Nov-15 10:43 264 -3.9
2019-Nov-15 10:38 264 -3.9
2019-Nov-15 10:33 264 -3.9
2019-Nov-15 10:28 264 -3.9
2019-Nov-15 10:23 264 -3.9
2019-Nov-15 10:18 264 -3.9
2019-Nov-15 10:13 264 -3.9
2019-Nov-15 10:08 264 -3.9
2019-Nov-15 10:03 264 -3.9
2019-Nov-15 09:58 264 -3.9
2019-Nov-15 09:53 264 -3.9
2019-Nov-15 09:48 264 -3.3
2019-Nov-15 09:43 264 -3.3
2019-Nov-15 09:38 264 -3.3
2019-Nov-15 09:33 264 -3.3
2019-Nov-15 09:28 264 -3.3
2019-Nov-15 09:23 264 -3.3
2019-Nov-15 09:18 264 -3.3
2019-Nov-15 09:13 264 -3.3
2019-Nov-15 09:08 264 -3.3
2019-Nov-15 09:03 264 -3.3
2019-Nov-15 08:58 264 -3.3
2019-Nov-15 08:53 264 -3.3
2019-Nov-15 08:48 264 -3.3
2019-Nov-15 08:43 264 -2.8
2019-Nov-15 08:38 264 -2.8
2019-Nov-15 08:33 264 -2.8
2019-Nov-15 08:28 264 -2.8
2019-Nov-15 08:23 264 -2.8
2019-Nov-15 08:18 264 -2.8
2019-Nov-15 08:13 264 -2.8
2019-Nov-15 08:08 264 -2.8
2019-Nov-15 08:03 264 -2.2
2019-Nov-15 07:58 264 -2.2
2019-Nov-15 07:53 264 -2.2
2019-Nov-15 07:48 264 -2.2
2019-Nov-15 07:43 264 -2.2
2019-Nov-15 07:38 264 284 gusting 284 -2.2
2019-Nov-15 07:33 264 -2.2
2019-Nov-15 07:28 264 -2.2
2019-Nov-15 07:23 264 -2.2
2019-Nov-15 07:18 264 -1.7
2019-Nov-15 07:13 264 -1.7
2019-Nov-15 07:08 264 -1.7
2019-Nov-15 06:58 264 -1.7
2019-Nov-15 06:53 264 -1.7
2019-Nov-15 06:48 264 -1.7
2019-Nov-15 06:43 264 -1.1
2019-Nov-15 06:38 264 -1.1
2019-Nov-15 06:33 264 -1.1
2019-Nov-15 06:28 264 -1.1
2019-Nov-15 06:18 264 -0.6
2019-Nov-15 06:13 264 -0.6
2019-Nov-15 06:08 264 -0.6
2019-Nov-15 06:03 264 -0.0
2019-Nov-15 05:58 264 -0.0
2019-Nov-15 05:53 264 -0.0
2019-Nov-15 05:48 264 -0.0
2019-Nov-15 05:43 264 0.6
2019-Nov-15 05:38 264 0.6
2019-Nov-15 05:33 264 0.6
2019-Nov-15 05:28 264 0.6
2019-Nov-15 05:23 264 1.1
2019-Nov-15 05:18 264 1.1
2019-Nov-15 05:13 264 1.1
2019-Nov-15 05:08 264 1.1
2019-Nov-15 05:03 264 1.1
2019-Nov-15 04:58 264 1.7
2019-Nov-15 04:53 264 1.7
2019-Nov-15 04:48 264 1.7
2019-Nov-15 04:43 264 1.7
2019-Nov-15 04:38 264 1.7
2019-Nov-15 04:33 264 1.7
2019-Nov-15 04:28 264 1.7
2019-Nov-15 04:23 264 1.7
2019-Nov-15 04:18 264 1.7
2019-Nov-15 04:13 264 2.2
2019-Nov-15 04:08 264 2.2
2019-Nov-15 04:03 264 2.2
2019-Nov-15 03:58 264 2.2
2019-Nov-15 03:48 264 0 gusting 1 1.7
2019-Nov-15 03:43 264 1.7
2019-Nov-15 03:33 276 1.7
2019-Nov-15 03:28 276 1.7
2019-Nov-15 03:23 276 1.7
2019-Nov-15 03:18 276 1.7
2019-Nov-15 03:13 276 1.7
2019-Nov-15 03:08 276 1.7
2019-Nov-15 03:03 276 1.7
2019-Nov-15 02:58 276 1.7
2019-Nov-15 02:53 276 1.7
2019-Nov-15 02:48 276 1.7
2019-Nov-15 02:43 276 1.7
2019-Nov-15 02:38 226 1.7
2019-Nov-15 02:33 226 1.7
2019-Nov-15 02:28 226 1.7
2019-Nov-15 02:18 223 1.1
2019-Nov-15 02:13 213 1.1
2019-Nov-15 02:08 213 1.1
2019-Nov-15 02:03 213 1.1
2019-Nov-15 01:58 213 1.1
2019-Nov-15 01:53 213 1.1
2019-Nov-15 01:48 213 1.1
2019-Nov-15 01:38 213 1.1
2019-Nov-15 01:33 213 1.1
2019-Nov-15 01:28 213 1.1
2019-Nov-15 01:23 213 1.1
2019-Nov-15 01:18 213 1.1
2019-Nov-15 01:13 213 1.1
2019-Nov-15 01:08 213 1.1
2019-Nov-15 01:03 213 1.1
2019-Nov-15 00:58 213 1.1
2019-Nov-15 00:53 213 1.1
2019-Nov-15 00:48 213 1.1
2019-Nov-15 00:43 213 1.1
2019-Nov-15 00:38 213 1.1
2019-Nov-15 00:33 213 1.1
2019-Nov-15 00:28 213 1.1
2019-Nov-15 00:23 213 1.1
2019-Nov-15 00:18 213 1.7
2019-Nov-15 00:13 213 1.7
2019-Nov-15 00:08 213 1.7
2019-Nov-15 00:03 213 1.7
2019-Nov-14 23:58 213 1.7
2019-Nov-14 23:53 213 1.7
2019-Nov-14 23:48 213 1.7
2019-Nov-14 23:43 213 1.7
2019-Nov-14 23:38 213 1.7
2019-Nov-14 23:33 213 1.7
2019-Nov-14 23:28 213 1.7
2019-Nov-14 23:23 213 1.7
2019-Nov-14 23:18 213 1.7
2019-Nov-14 23:13 213 1.7
2019-Nov-14 23:08 213 1.7
2019-Nov-14 23:03 213 2.2
2019-Nov-14 22:58 213 2.2
2019-Nov-14 22:53 213 2.2
2019-Nov-14 22:48 213 2.2
2019-Nov-14 22:43 213 2.2
2019-Nov-14 22:38 213 2.2
2019-Nov-14 22:33 213 2.2
2019-Nov-14 22:28 213 2.2
2019-Nov-14 22:23 213 2.2
2019-Nov-14 22:18 213 2.8
2019-Nov-14 22:13 213 2.8
2019-Nov-14 22:08 213 2.8
2019-Nov-14 22:03 213 2.8
2019-Nov-14 21:58 213 2.8
2019-Nov-14 21:53 213 3.3
2019-Nov-14 21:48 213 3.3
2019-Nov-14 21:43 213 3.3
2019-Nov-14 21:38 213 3.9
2019-Nov-14 21:33 213 3.9
2019-Nov-14 21:28 213 4.4
2019-Nov-14 21:23 213 4.4
2019-Nov-14 21:18 213 4.4
2019-Nov-14 21:13 213 5.0
2019-Nov-14 21:08 213 5.0
2019-Nov-14 21:03 213 5.0
2019-Nov-14 20:58 213 5.0
2019-Nov-14 20:53 213 5.0
2019-Nov-14 20:48 213 5.0
2019-Nov-14 20:43 213 5.0
2019-Nov-14 20:38 213 5.0
2019-Nov-14 20:33 213 0 gusting 6 5.0
2019-Nov-14 20:28 198 2 gusting 6 5.0
2019-Nov-14 20:23 198 5.0
2019-Nov-14 20:18 178 1 gusting 5 5.6
2019-Nov-14 20:13 192 5.6
2019-Nov-14 20:08 189 0 gusting 4 5.6
2019-Nov-14 20:03 217 5.6
2019-Nov-14 19:58 221 5.6
2019-Nov-14 19:53 221 0 gusting 3 5.0
2019-Nov-14 19:48 222 0 gusting 3 5.0
2019-Nov-14 19:43 209 1 gusting 4 5.0
2019-Nov-14 19:38 210 0 gusting 4 5.0
2019-Nov-14 19:33 236 5.0
2019-Nov-14 19:28 236 5.0
2019-Nov-14 19:23 236 5.0
2019-Nov-14 19:18 236 5.0
2019-Nov-14 19:13 236 5.0
2019-Nov-14 19:08 236 5.0
2019-Nov-14 19:03 236 0 gusting 2 5.0
2019-Nov-14 18:58 238 5.0
2019-Nov-14 18:53 238 0 gusting 4 5.0
2019-Nov-14 18:48 225 4.4
2019-Nov-14 18:43 225 1 gusting 5 4.4
2019-Nov-14 18:38 227 0 gusting 2 4.4
2019-Nov-14 18:33 227 0 gusting 5 4.4
2019-Nov-14 18:28 227 2 gusting 5 4.4
2019-Nov-14 18:23 209 0 gusting 6 4.4
2019-Nov-14 18:18 192 1 gusting 6 5.0
2019-Nov-14 18:13 240 1 gusting 6 5.0
2019-Nov-14 17:53 214 1 gusting 6 4.4
2019-Nov-14 17:48 205 4.4
2019-Nov-14 17:38 174 4.4
2019-Nov-14 17:33 221 1 gusting 5 5.0
2019-Nov-14 17:28 216 1 gusting 4 5.0
2019-Nov-14 17:23 230 0 gusting 7 5.0
2019-Nov-14 17:18 223 3 gusting 7 4.4
2019-Nov-14 17:13 217 3 gusting 7 4.4
2019-Nov-14 17:08 216 2 gusting 9 3.9
2019-Nov-14 17:03 211 4 gusting 9 3.9
2019-Nov-14 16:58 224 0 gusting 6 3.9
2019-Nov-14 16:53 229 3 gusting 6 3.3
2019-Nov-14 16:48 203 0 gusting 7 3.3
2019-Nov-14 16:43 184 2 gusting 5 3.3
2019-Nov-14 16:38 186 2 gusting 7 3.3
2019-Nov-14 16:33 192 4 gusting 7 3.3
2019-Nov-14 16:28 184 1 gusting 6 3.3
2019-Nov-14 16:23 211 2 gusting 4 3.3
2019-Nov-14 16:18 227 2.8
2019-Nov-14 16:13 227 2 gusting 7 2.8
2019-Nov-14 16:08 227 3 gusting 7 2.8
2019-Nov-14 16:03 223 2 gusting 6 2.8
2019-Nov-14 15:58 227 1 gusting 5 2.2
2019-Nov-14 15:53 227 1 gusting 5 2.2
2019-Nov-14 15:48 238 1 gusting 5 2.2
2019-Nov-14 15:43 228 2.2
2019-Nov-14 15:38 230 1 gusting 3 1.7
2019-Nov-14 15:33 272 1.7
2019-Nov-14 15:28 273 1.1
2019-Nov-14 15:18 284 1.1
2019-Nov-14 15:13 284 0.6
2019-Nov-14 15:08 284 0.6
2019-Nov-14 15:03 284 0.6
2019-Nov-14 14:58 284 -0.0
2019-Nov-14 14:53 284 -0.0
2019-Nov-14 14:48 284 -0.6
2019-Nov-14 14:43 284 -0.6
2019-Nov-14 14:38 284 -1.1
2019-Nov-14 14:33 284 -1.1
2019-Nov-14 14:28 284 -1.7
2019-Nov-14 14:23 284 -1.7
2019-Nov-14 14:18 284 -2.2
2019-Nov-14 14:13 284 -2.2
2019-Nov-14 14:08 284 -2.2
2019-Nov-14 14:03 284 -2.8
2019-Nov-14 13:58 284 -2.8
2019-Nov-14 13:53 284 -2.8
2019-Nov-14 13:48 284 -3.3
2019-Nov-14 13:38 284 -3.3
2019-Nov-14 13:33 284 -3.9
2019-Nov-14 13:28 284 -3.9
2019-Nov-14 13:23 284 -4.4
2019-Nov-14 13:18 284 -5.0
2019-Nov-14 13:13 284 -5.0
2019-Nov-14 13:08 284 -5.6
2019-Nov-14 13:03 288 -5.6
2019-Nov-14 12:58 288 -6.1
2019-Nov-14 12:53 288 -6.1
2019-Nov-14 12:38 288 -6.7
2019-Nov-14 12:33 288 -6.7
2019-Nov-14 12:23 289 -7.2
2019-Nov-14 12:18 288 -7.2
2019-Nov-14 12:13 288 -7.2
2019-Nov-14 12:08 288 -7.2
2019-Nov-14 11:58 288 -7.2
2019-Nov-14 11:53 288 -7.2
2019-Nov-14 11:48 288 -7.8
2019-Nov-14 11:43 288 -7.8
2019-Nov-14 11:38 289 -7.8
2019-Nov-14 11:33 288 -7.8
2019-Nov-14 11:28 288 -7.2
2019-Nov-14 11:23 288 -7.2
2019-Nov-14 11:18 288 -7.2
2019-Nov-14 11:13 288 -7.2
2019-Nov-14 11:08 288 -7.2
2019-Nov-14 11:03 288 -7.2
2019-Nov-14 10:58 288 -7.2
2019-Nov-14 10:53 288 -7.2
2019-Nov-14 10:48 288 -7.8
2019-Nov-14 10:43 288 -7.8
2019-Nov-14 10:38 288 -7.8
2019-Nov-14 10:33 288 -7.8
2019-Nov-14 10:28 288 -7.8
2019-Nov-14 10:18 288 -7.8
2019-Nov-14 10:13 288 -7.8
2019-Nov-14 10:08 288 -7.8
2019-Nov-14 10:03 288 -7.8
2019-Nov-14 09:58 288 -7.8
2019-Nov-14 09:53 288 -7.8
2019-Nov-14 09:48 288 -7.8
2019-Nov-14 09:43 288 -7.8
2019-Nov-14 09:38 288 -7.2
2019-Nov-14 09:33 288 -7.2
2019-Nov-14 09:28 288 -7.2
2019-Nov-14 09:23 288 -7.2
2019-Nov-14 09:18 288 -7.2
2019-Nov-14 09:13 288 -7.2
2019-Nov-14 09:08 288 -7.2
2019-Nov-14 09:03 288 -7.2
2019-Nov-14 08:58 288 -7.2
2019-Nov-14 08:53 289 -7.2
2019-Nov-14 08:48 288 -7.2
2019-Nov-14 08:43 288 -7.2
2019-Nov-14 08:38 288 -7.2
2019-Nov-14 08:33 288 -7.2
2019-Nov-14 08:28 288 -7.2
2019-Nov-14 08:23 288 -7.2
2019-Nov-14 08:18 288 -7.2
2019-Nov-14 08:13 288 -7.2
2019-Nov-14 08:08 288 -7.2
2019-Nov-14 08:03 288 -7.2
2019-Nov-14 07:58 288 -7.2
2019-Nov-14 07:53 288 -6.7
2019-Nov-14 07:43 288 -6.7
2019-Nov-14 07:38 288 -6.7
2019-Nov-14 07:33 288 -6.7
2019-Nov-14 07:28 288 -6.7
2019-Nov-14 07:23 288 -6.7
2019-Nov-14 07:18 288 -6.7
2019-Nov-14 07:13 288 -6.7
2019-Nov-14 07:08 289 -6.7
2019-Nov-14 07:03 288 -6.7
2019-Nov-14 06:58 288 -6.7
2019-Nov-14 06:53 288 -6.7
2019-Nov-14 06:48 288 -6.7
2019-Nov-14 06:43 288 -6.7
2019-Nov-14 06:38 288 -6.7
2019-Nov-14 06:33 288 -6.7
2019-Nov-14 06:28 288 -6.7
2019-Nov-14 06:23 288 -6.7
2019-Nov-14 06:18 288 -6.1
2019-Nov-14 06:13 288 -6.1
2019-Nov-14 06:08 288 -6.1
2019-Nov-14 06:03 288 -6.1
2019-Nov-14 05:58 288 -6.1
2019-Nov-14 05:53 288 -6.1
2019-Nov-14 05:48 288 -6.1
2019-Nov-14 05:43 288 -6.1
2019-Nov-14 05:38 288 -6.1
2019-Nov-14 05:33 288 -6.1
2019-Nov-14 05:28 288 -6.1
2019-Nov-14 05:23 288 -6.1
2019-Nov-14 05:18 288 -6.1
2019-Nov-14 05:13 288 -6.1
2019-Nov-14 05:08 288 -6.1
2019-Nov-14 05:03 288 -6.1
2019-Nov-14 04:58 288 -5.6
2019-Nov-14 04:53 288 -5.6
2019-Nov-14 04:48 288 -5.6
2019-Nov-14 04:43 288 -5.6
2019-Nov-14 04:38 288 -5.6
2019-Nov-14 04:33 288 -5.6
2019-Nov-14 04:28 288 -6.1
2019-Nov-14 04:23 288 -6.1
2019-Nov-14 04:18 288 -6.1
2019-Nov-14 04:13 288 -6.1
2019-Nov-14 04:08 289 -6.1
2019-Nov-14 04:03 289 -6.1
2019-Nov-14 03:58 288 -6.1
2019-Nov-14 03:53 288 -6.1
2019-Nov-14 03:48 288 -6.1
2019-Nov-14 03:43 288 -6.1
2019-Nov-14 03:38 288 -6.1
2019-Nov-14 03:33 288 -6.1
2019-Nov-14 03:28 288 -6.1
2019-Nov-14 03:23 288 -6.1
2019-Nov-14 03:18 289 -6.1
2019-Nov-14 03:13 289 -6.1
2019-Nov-14 03:08 289 -6.1
2019-Nov-14 03:03 288 -6.1
2019-Nov-14 02:58 289 -6.1
2019-Nov-14 02:53 288 -6.1
2019-Nov-14 02:48 288 -6.1
2019-Nov-14 02:43 288 -6.1
2019-Nov-14 02:38 288 -6.1
2019-Nov-14 02:33 288 -5.6
2019-Nov-14 02:28 289 -5.6
2019-Nov-14 02:23 288 -5.6
2019-Nov-14 02:18 288 -5.6
2019-Nov-14 02:13 288 -5.6
2019-Nov-14 02:08 288 -5.6
2019-Nov-14 02:03 288 -5.6
2019-Nov-14 01:58 288 -5.6
2019-Nov-14 01:53 288 -5.6
2019-Nov-14 01:48 289 -5.6
2019-Nov-14 01:38 289 -5.6
2019-Nov-14 01:33 288 -5.0
2019-Nov-14 01:28 289 -5.0
2019-Nov-14 01:23 289 -5.0
2019-Nov-14 01:18 289 -5.0
2019-Nov-14 01:13 288 -5.0
2019-Nov-14 01:08 288 -5.0
2019-Nov-14 01:03 288 -5.0
2019-Nov-14 00:58 288 -5.0
2019-Nov-14 00:53 289 -5.0
2019-Nov-14 00:48 289 -5.0
2019-Nov-14 00:43 288 -5.0
2019-Nov-14 00:38 288 -5.0
2019-Nov-14 00:33 288 -4.4
2019-Nov-14 00:28 289 -4.4
2019-Nov-14 00:23 288 -4.4
2019-Nov-14 00:18 288 -4.4
2019-Nov-14 00:13 288 -4.4
2019-Nov-14 00:08 288 -4.4
2019-Nov-14 00:03 289 -4.4
2019-Nov-13 23:58 289 -4.4
2019-Nov-13 23:53 288 -3.9
2019-Nov-13 23:48 288 -3.9
2019-Nov-13 23:43 288 -3.9
2019-Nov-13 23:38 288 -3.9
2019-Nov-13 23:33 288 -3.9
2019-Nov-13 23:28 288 -3.9
2019-Nov-13 23:23 288 -3.3
2019-Nov-13 23:18 289 -3.3
2019-Nov-13 23:13 288 -3.3
2019-Nov-13 23:08 288 -3.3
2019-Nov-13 23:03 289 -3.3
2019-Nov-13 22:58 289 -3.3
2019-Nov-13 22:54 289 -2.8
2019-Nov-13 22:48 288 -2.8
2019-Nov-13 22:43 289 -2.8
2019-Nov-13 22:38 289 -2.8
2019-Nov-13 22:23 289 -2.2
2019-Nov-13 22:18 288 -2.2
2019-Nov-13 22:13 288 -2.2
2019-Nov-13 22:08 288 -1.7
2019-Nov-13 22:03 288 -1.7
2019-Nov-13 21:58 288 -1.7
2019-Nov-13 21:53 288 -1.7
2019-Nov-13 21:48 289 -1.7
2019-Nov-13 21:43 288 0 gusting 3 -1.1
2019-Nov-13 21:33 281 1 gusting 7 -1.1
2019-Nov-13 21:28 293 -1.1
2019-Nov-13 21:23 304 1 gusting 4 -1.1
2019-Nov-13 21:18 304 0 gusting 4 -1.1
2019-Nov-13 21:13 304 0 gusting 6 -1.1
2019-Nov-13 21:08 304 1 gusting 6 -1.1
2019-Nov-13 21:03 322 0 gusting 6 -1.1
2019-Nov-13 20:58 324 1 gusting 6 -1.1
2019-Nov-13 20:53 327 -1.1
2019-Nov-13 20:48 355 0 gusting 5 -1.1
2019-Nov-13 20:43 292 -0.6
2019-Nov-13 20:38 292 1 gusting 7 -0.6
2019-Nov-13 20:33 303 2 gusting 10 -0.6
2019-Nov-13 20:28 355 4 gusting 10 -0.6
2019-Nov-13 20:23 302 2 gusting 8 -0.6
2019-Nov-13 20:18 013 1 gusting 8 -0.6
2019-Nov-13 20:13 301 3 gusting 8 -0.6
2019-Nov-13 20:08 335 4 gusting 7 -0.0
2019-Nov-13 20:03 329 2 gusting 6 -0.0